Time;durP1;ratioP1;P1;durP2;ratioP2;P2;SDS_P1;SDS_P2;PMS_P1;PMS_P2;Temp;Humidity;BMP_temperature;BMP_pressure;BME280_temperature;BME280_humidity;BME280_pressure;Samples;Min_cycle;Max_cycle;Signal;HPM_P1;HPM_P2
2022/08/20 00:01:00;;;;;;;6.82;4.22;;;22.40;71.30;;;;;;9185291;19;20090;-70
2022/08/20 00:04:06;;;;;;;7.68;4.68;;;22.30;71.30;;;;;;9185098;19;20022;-69
2022/08/20 00:07:12;;;;;;;6.15;4.65;;;22.40;71.50;;;;;;9181353;19;20035;-69
2022/08/20 00:10:21;;;;;;;7.35;4.53;;;22.30;71.50;;;;;;9184707;19;20014;-69
2022/08/20 00:13:31;;;;;;;8.13;4.15;;;22.30;71.70;;;;;;9182870;19;20017;-68
2022/08/20 00:16:38;;;;;;;5.78;4.03;;;22.30;71.90;;;;;;9184404;19;20070;-68
2022/08/20 00:19:43;;;;;;;7.25;4.43;;;22.30;71.90;;;;;;9182245;19;20356;-70
2022/08/20 00:22:49;;;;;;;6.45;4.05;;;22.20;71.90;;;;;;9184635;19;20052;-68
2022/08/20 00:25:57;;;;;;;7.35;3.90;;;22.20;72.00;;;;;;9184947;19;20022;-68
2022/08/20 00:29:02;;;;;;;8.07;4.10;;;22.20;72.10;;;;;;9183704;19;20018;-68
2022/08/20 00:32:07;;;;;;;7.72;4.28;;;22.20;72.10;;;;;;9181005;19;20011;-69
2022/08/20 00:35:12;;;;;;;6.32;4.38;;;22.20;72.20;;;;;;9183795;19;20021;-69
2022/08/20 00:38:18;;;;;;;6.82;4.45;;;22.20;72.30;;;;;;9183624;19;20021;-69
2022/08/20 00:41:27;;;;;;;6.15;4.85;;;22.20;72.40;;;;;;9180084;19;20491;-69
2022/08/20 00:44:33;;;;;;;6.38;4.90;;;22.20;72.50;;;;;;9183239;19;20019;-69
2022/08/20 00:47:39;;;;;;;9.70;4.90;;;22.20;72.50;;;;;;9183077;19;20014;-70
2022/08/20 00:50:58;;;;;;;8.00;4.97;;;22.10;72.50;;;;;;9182328;19;20014;-69
2022/08/20 00:54:07;;;;;;;9.23;5.18;;;22.10;72.60;;;;;;9182999;19;20018;-69
2022/08/20 00:57:23;;;;;;;9.13;5.20;;;22.10;72.60;;;;;;9183480;19;20451;-69
2022/08/20 01:00:31;;;;;;;10.85;6.15;;;22.10;72.90;;;;;;9182566;19;20034;-70
2022/08/20 01:03:37;;;;;;;7.18;5.30;;;22.10;72.80;;;;;;9182257;19;20026;-69
2022/08/20 01:06:43;;;;;;;13.20;6.10;;;22.10;72.80;;;;;;9178096;19;20017;-69
2022/08/20 01:09:49;;;;;;;7.75;5.30;;;22.10;72.90;;;;;;9183092;19;20033;-66
2022/08/20 01:13:10;;;;;;;8.43;6.50;;;22.10;73.00;;;;;;9180634;19;20015;-69
2022/08/20 01:16:22;;;;;;;7.95;5.93;;;22.10;73.20;;;;;;9182575;19;20014;-70
2022/08/20 01:19:32;;;;;;;8.80;6.82;;;22.10;73.20;;;;;;9182992;19;20085;-69
2022/08/20 01:26:09;;;;;;;7.80;6.28;;;22.00;73.30;;;;;;9183058;19;20018;-68
2022/08/20 01:29:18;;;;;;;10.32;7.15;;;22.00;73.30;;;;;;9182016;19;20015;-69
2022/08/20 01:32:23;;;;;;;9.13;6.72;;;22.00;73.30;;;;;;9180877;19;20029;-68
2022/08/20 01:35:30;;;;;;;10.57;6.65;;;22.00;73.30;;;;;;9182253;19;20014;-68
2022/08/20 01:38:37;;;;;;;9.52;6.05;;;22.00;73.50;;;;;;9180900;19;20022;-68
2022/08/20 01:42:05;;;;;;;9.18;6.65;;;22.00;73.50;;;;;;9181455;19;20013;-70
2022/08/20 01:45:10;;;;;;;9.10;6.40;;;22.00;73.90;;;;;;9180231;19;20025;-69
2022/08/20 01:48:16;;;;;;;11.23;7.03;;;22.00;73.60;;;;;;9181634;19;20042;-68
2022/08/20 01:51:26;;;;;;;8.32;6.63;;;22.00;73.70;;;;;;9181374;19;20021;-68
2022/08/20 01:54:33;;;;;;;11.45;7.88;;;22.00;73.80;;;;;;9181200;19;20572;-68
2022/08/20 01:57:42;;;;;;;10.07;7.80;;;21.90;73.80;;;;;;9180806;19;20581;-68
2022/08/20 02:00:47;;;;;;;15.38;7.57;;;21.90;73.90;;;;;;9179417;19;20025;-69
2022/08/20 02:03:53;;;;;;;14.05;8.93;;;21.90;73.90;;;;;;9181276;19;20014;-68
2022/08/20 02:07:00;;;;;;;12.75;8.50;;;21.90;74.00;;;;;;9174519;19;20014;-70
2022/08/20 02:10:07;;;;;;;12.13;7.93;;;21.90;74.10;;;;;;9181157;19;20010;-68
2022/08/20 02:13:15;;;;;;;13.75;8.50;;;21.90;74.10;;;;;;9179013;19;20018;-68
2022/08/20 02:16:23;;;;;;;11.88;8.60;;;21.80;74.30;;;;;;9180303;19;20021;-70
2022/08/20 02:19:31;;;;;;;13.43;9.13;;;21.80;74.20;;;;;;9179361;19;20014;-68
2022/08/20 02:22:43;;;;;;;13.88;8.85;;;21.80;74.90;;;;;;9180131;19;20466;-68
2022/08/20 02:25:54;;;;;;;14.07;8.65;;;21.80;74.40;;;;;;9180416;19;20015;-69
2022/08/20 02:29:03;;;;;;;18.60;9.05;;;21.80;74.40;;;;;;9180608;19;20033;-68
2022/08/20 02:32:10;;;;;;;16.73;8.65;;;21.70;74.40;;;;;;9177220;19;20023;-70
2022/08/20 02:35:36;;;;;;;11.93;8.25;;;21.70;74.50;;;;;;9178033;19;20031;-69
2022/08/20 02:38:42;;;;;;;15.30;9.15;;;21.70;74.40;;;;;;9179360;19;20082;-70
2022/08/20 02:41:48;;;;;;;12.65;9.02;;;21.70;74.50;;;;;;9179322;19;20018;-68
2022/08/20 02:44:57;;;;;;;17.23;8.02;;;21.70;74.60;;;;;;9178997;19;20018;-69
2022/08/20 02:48:02;;;;;;;17.25;8.50;;;21.70;74.60;;;;;;9178862;19;20011;-71
2022/08/20 02:51:08;;;;;;;15.88;9.07;;;21.70;74.60;;;;;;9178963;19;20017;-70
2022/08/20 02:54:14;;;;;;;12.52;7.97;;;21.70;74.70;;;;;;9177823;19;20042;-68
2022/08/20 02:57:21;;;;;;;16.27;8.20;;;21.70;74.70;;;;;;9178444;19;20463;-69
2022/08/20 03:00:33;;;;;;;13.70;8.23;;;21.60;74.70;;;;;;9178708;19;20014;-68
2022/08/20 03:03:43;;;;;;;13.80;7.28;;;21.60;74.80;;;;;;9178353;19;20048;-68
2022/08/20 03:06:48;;;;;;;10.80;8.15;;;21.60;74.70;;;;;;9174657;19;20018;-68
2022/08/20 03:09:56;;;;;;;15.90;7.95;;;21.60;74.70;;;;;;9178364;19;20015;-68
2022/08/20 03:13:02;;;;;;;10.48;7.95;;;21.60;74.80;;;;;;9176654;19;20014;-68
2022/08/20 03:16:10;;;;;;;14.27;7.53;;;21.50;74.80;;;;;;9178854;19;20021;-68
2022/08/20 03:19:15;;;;;;;17.15;7.90;;;21.50;74.80;;;;;;9178451;19;20483;-68
2022/08/20 03:22:20;;;;;;;11.18;7.28;;;21.50;74.80;;;;;;9177869;19;20025;-68
2022/08/20 03:25:26;;;;;;;15.30;7.38;;;21.50;74.90;;;;;;9176241;19;20025;-69
2022/08/20 03:28:31;;;;;;;13.82;7.55;;;21.50;74.90;;;;;;9177871;19;20022;-68
2022/08/20 03:31:39;;;;;;;13.45;7.05;;;21.50;75.00;;;;;;9175669;19;20019;-69
2022/08/20 03:34:44;;;;;;;12.65;7.60;;;21.50;75.00;;;;;;9187133;19;20029;-69
2022/08/20 03:37:49;;;;;;;22.30;7.80;;;21.40;75.00;;;;;;9186429;19;20046;-68
2022/08/20 03:40:54;;;;;;;12.20;7.30;;;21.40;75.00;;;;;;9184478;19;20015;-68
2022/08/20 03:44:00;;;;;;;11.93;6.85;;;21.40;75.10;;;;;;9186559;19;20071;-68
2022/08/20 03:47:09;;;;;;;20.27;8.10;;;21.40;75.10;;;;;;9186624;19;20018;-70
2022/08/20 03:50:14;;;;;;;12.57;7.43;;;21.40;75.20;;;;;;9187177;19;20011;-68
2022/08/20 03:53:30;;;;;;;12.02;7.47;;;21.30;75.10;;;;;;9184367;19;20025;-68
2022/08/20 03:56:35;;;;;;;15.60;7.25;;;21.40;75.20;;;;;;9185551;19;20014;-69
2022/08/20 03:59:40;;;;;;;15.55;7.22;;;21.30;75.10;;;;;;9186057;19;20033;-67
2022/08/20 04:02:48;;;;;;;12.80;7.57;;;21.30;75.20;;;;;;9184013;19;20476;-68
2022/08/20 04:05:53;;;;;;;18.35;7.65;;;21.30;75.30;;;;;;9182436;19;20018;-69
2022/08/20 04:08:58;;;;;;;15.35;7.82;;;21.30;75.20;;;;;;9185831;19;20025;-70
2022/08/20 04:12:03;;;;;;;10.52;7.05;;;21.20;75.20;;;;;;9182534;19;20024;-68
2022/08/20 04:15:11;;;;;;;14.00;8.07;;;21.30;75.30;;;;;;9185454;19;20518;-70
2022/08/20 04:18:21;;;;;;;13.95;7.55;;;21.20;75.40;;;;;;9184805;19;20026;-68
2022/08/20 04:21:26;;;;;;;12.15;6.75;;;21.20;75.40;;;;;;9184983;19;20006;-69
2022/08/20 04:24:36;;;;;;;11.00;6.97;;;21.20;75.30;;;;;;9183726;19;20111;-68
2022/08/20 04:27:42;;;;;;;14.07;7.38;;;21.20;75.40;;;;;;9181826;19;20585;-69
2022/08/20 04:30:47;;;;;;;12.98;7.43;;;21.10;75.30;;;;;;9179647;19;20018;-69
2022/08/20 04:33:58;;;;;;;13.82;7.50;;;21.10;75.30;;;;;;9183179;19;20131;-68
2022/08/20 04:37:03;;;;;;;12.52;7.47;;;21.10;75.40;;;;;;9183434;19;20022;-69
2022/08/20 04:43:32;;;;;;;15.32;7.32;;;21.10;75.40;;;;;;9183739;19;20019;-68
2022/08/20 04:46:37;;;;;;;13.45;7.45;;;21.00;75.40;;;;;;9182150;19;20010;-69
2022/08/20 04:49:45;;;;;;;12.40;7.78;;;21.00;75.40;;;;;;9184189;19;20010;-67
2022/08/20 04:52:50;;;;;;;9.20;7.25;;;21.00;75.50;;;;;;9182112;19;20037;-68
2022/08/20 04:55:58;;;;;;;18.27;9.32;;;21.00;75.50;;;;;;9179590;19;20545;-68
2022/08/20 04:59:04;;;;;;;13.45;7.55;;;20.90;75.50;;;;;;9180097;19;20361;-68
2022/08/20 05:02:09;;;;;;;13.20;7.65;;;20.90;75.50;;;;;;9179805;19;20015;-68
2022/08/20 05:05:21;;;;;;;13.70;7.45;;;20.90;75.60;;;;;;9174825;19;20022;-68
2022/08/20 05:08:28;;;;;;;15.05;7.60;;;20.90;75.70;;;;;;9177967;19;20519;-68
2022/08/20 05:11:34;;;;;;;15.88;8.38;;;20.90;75.70;;;;;;9177890;19;20027;-69
2022/08/20 05:14:40;;;;;;;18.00;7.93;;;20.80;75.70;;;;;;9175722;19;20522;-70
2022/08/20 05:17:46;;;;;;;16.17;7.43;;;20.80;75.70;;;;;;9178736;19;20403;-68
2022/08/20 05:21:04;;;;;;;17.40;8.15;;;20.80;75.80;;;;;;9177836;19;20015;-68
2022/08/20 05:24:11;;;;;;;16.73;7.47;;;20.80;76.00;;;;;;9176120;19;20480;-69
2022/08/20 05:27:16;;;;;;;18.42;6.97;;;20.80;75.80;;;;;;9176696;19;20025;-67
2022/08/20 05:30:32;;;;;;;17.65;7.45;;;20.80;75.90;;;;;;9182639;19;20475;-67
2022/08/20 05:33:40;;;;;;;15.18;8.15;;;20.80;75.90;;;;;;9181761;19;20014;-69
2022/08/20 05:36:50;;;;;;;16.33;8.40;;;20.70;76.00;;;;;;9182045;19;20347;-69
2022/08/20 05:39:55;;;;;;;20.80;8.00;;;20.80;76.10;;;;;;9180567;19;20015;-68
2022/08/20 05:43:03;;;;;;;16.98;8.32;;;20.80;76.10;;;;;;9182148;19;20014;-69
2022/08/20 05:46:08;;;;;;;18.13;7.15;;;20.70;76.10;;;;;;9181443;19;20337;-68
2022/08/20 05:49:16;;;;;;;20.05;7.78;;;20.70;76.80;;;;;;9179663;19;20368;-68
2022/08/20 05:52:23;;;;;;;18.48;8.07;;;20.80;76.20;;;;;;9182773;19;20464;-68
2022/08/20 05:55:29;;;;;;;15.05;7.40;;;20.70;76.20;;;;;;9177674;19;20029;-69
2022/08/20 05:58:34;;;;;;;17.20;8.07;;;20.80;76.30;;;;;;9181146;19;20014;-67
2022/08/20 06:01:41;;;;;;;14.70;8.23;;;20.80;76.40;;;;;;9181011;19;20460;-68
2022/08/20 06:04:44;;;;;;;12.80;7.78;;;20.80;76.50;;;;;;9178142;19;20006;-67
2022/08/20 06:07:52;;;;;;;22.48;8.07;;;20.80;76.50;;;;;;9180381;19;20475;-68
2022/08/20 06:11:03;;;;;;;14.98;7.65;;;20.80;76.70;;;;;;9179794;19;20052;-69
2022/08/20 06:14:08;;;;;;;11.15;6.57;;;20.80;76.60;;;;;;9179711;19;20015;-68
2022/08/20 06:17:15;;;;;;;18.02;6.70;;;20.80;76.60;;;;;;9180088;19;20372;-69
2022/08/20 06:20:20;;;;;;;18.75;7.20;;;20.80;76.60;;;;;;9179054;19;20299;-67
2022/08/20 06:23:30;;;;;;;16.45;6.72;;;20.90;76.60;;;;;;9180073;19;20585;-67
2022/08/20 06:26:57;;;;;;;12.98;6.32;;;20.90;76.60;;;;;;9179962;19;20014;-68
2022/08/20 06:30:02;;;;;;;11.45;6.43;;;20.90;76.50;;;;;;9180929;19;20018;-69
2022/08/20 06:33:08;;;;;;;15.73;6.43;;;20.90;76.40;;;;;;9179515;19;20786;-67
2022/08/20 06:36:13;;;;;;;16.42;6.15;;;20.90;76.30;;;;;;9179618;19;20046;-68
2022/08/20 06:39:25;;;;;;;17.30;6.40;;;21.00;76.30;;;;;;9179371;19;20349;-70
2022/08/20 06:42:31;;;;;;;17.42;6.60;;;21.00;76.30;;;;;;9179399;19;20041;-67
2022/08/20 06:45:37;;;;;;;13.60;5.80;;;21.00;76.30;;;;;;9179158;19;20014;-67
2022/08/20 06:48:43;;;;;;;15.27;6.25;;;21.00;76.30;;;;;;9179526;19;20018;-69
2022/08/20 06:51:48;;;;;;;21.50;5.63;;;21.00;76.30;;;;;;9179483;19;20017;-68
2022/08/20 06:54:58;;;;;;;12.88;5.45;;;21.00;76.30;;;;;;9177968;19;20078;-68
2022/08/20 06:58:05;;;;;;;10.98;5.35;;;21.00;76.20;;;;;;9176606;19;20024;-68
2022/08/20 07:01:20;;;;;;;12.30;4.97;;;21.00;76.10;;;;;;9178902;19;20132;-68
2022/08/20 07:04:25;;;;;;;15.73;5.53;;;21.00;76.00;;;;;;9174971;19;20014;-70
2022/08/20 07:07:30;;;;;;;17.05;5.10;;;21.00;76.10;;;;;;9184547;19;20079;-67
2022/08/20 07:10:38;;;;;;;17.42;4.93;;;21.00;76.00;;;;;;9185769;19;20109;-69
2022/08/20 07:13:44;;;;;;;10.65;5.00;;;21.00;76.10;;;;;;9186635;19;20018;-68
2022/08/20 07:16:49;;;;;;;13.73;5.07;;;20.90;75.90;;;;;;9183203;19;20018;-68
2022/08/20 07:19:54;;;;;;;12.80;5.00;;;21.00;76.00;;;;;;9187778;19;20022;-69
2022/08/20 07:22:59;;;;;;;15.55;4.95;;;21.00;76.00;;;;;;9186985;19;20018;-67
2022/08/20 07:26:07;;;;;;;12.13;5.20;;;21.00;76.00;;;;;;9187207;19;20479;-67
2022/08/20 07:29:12;;;;;;;14.93;6.05;;;21.00;76.00;;;;;;9187231;19;20010;-68
2022/08/20 07:35:35;;;;;;;22.02;5.32;;;21.00;75.80;;;;;;9184757;19;20507;-67
2022/08/20 07:38:40;;;;;;;13.43;4.80;;;21.00;75.70;;;;;;9183922;19;20026;-68
2022/08/20 07:42:01;;;;;;;15.48;4.70;;;21.00;75.60;;;;;;9182135;19;20022;-68
2022/08/20 07:45:09;;;;;;;14.18;4.65;;;21.00;75.60;;;;;;9185407;19;20025;-69
2022/08/20 07:48:17;;;;;;;11.80;4.72;;;21.00;75.60;;;;;;9186705;19;20086;-68
2022/08/20 07:51:36;;;;;;;13.07;4.43;;;21.00;75.50;;;;;;9185760;19;20011;-67
2022/08/20 07:54:42;;;;;;;16.05;4.90;;;21.10;75.60;;;;;;9182510;19;20026;-68
2022/08/20 07:57:50;;;;;;;15.88;3.92;;;21.10;75.50;;;;;;9183860;19;20018;-69
2022/08/20 08:00:55;;;;;;;16.90;4.40;;;21.10;75.50;;;;;;9185396;19;20021;-69
2022/08/20 08:04:03;;;;;;;18.25;4.35;;;21.10;75.30;;;;;;9185084;19;20089;-67
2022/08/20 08:07:09;;;;;;;15.15;4.40;;;21.20;75.20;;;;;;9181311;19;20329;-64
2022/08/20 08:10:19;;;;;;;8.82;3.67;;;21.20;75.00;;;;;;9183362;19;20018;-68
2022/08/20 08:13:29;;;;;;;14.48;4.13;;;21.30;74.90;;;;;;9182241;19;20018;-67
2022/08/20 08:16:34;;;;;;;14.48;3.75;;;21.30;74.70;;;;;;9183354;19;20014;-68
2022/08/20 08:19:45;;;;;;;12.93;3.67;;;21.30;74.60;;;;;;9181920;19;20014;-66
2022/08/20 08:22:51;;;;;;;7.03;2.90;;;21.40;74.50;;;;;;9184738;19;20042;-69
2022/08/20 08:25:57;;;;;;;14.05;3.00;;;21.50;74.30;;;;;;9180593;19;20018;-68
2022/08/20 08:29:06;;;;;;;12.23;3.63;;;21.40;74.10;;;;;;9182161;19;20015;-68
2022/08/20 08:32:14;;;;;;;11.30;2.92;;;21.50;74.00;;;;;;9183322;19;20018;-67
2022/08/20 08:35:19;;;;;;;18.25;3.25;;;21.60;73.90;;;;;;9182445;19;20033;-66
2022/08/20 08:38:25;;;;;;;12.05;2.70;;;21.60;73.80;;;;;;9181819;19;20668;-67
2022/08/20 08:41:33;;;;;;;11.82;2.45;;;21.60;73.60;;;;;;9178023;19;20018;-68
2022/08/20 08:44:43;;;;;;;11.52;2.30;;;21.70;73.60;;;;;;9181589;19;20011;-67
2022/08/20 08:47:49;;;;;;;7.68;2.25;;;21.70;73.40;;;;;;9180255;19;20475;-68
2022/08/20 08:50:58;;;;;;;12.25;2.63;;;21.80;73.30;;;;;;9181064;19;20352;-63
2022/08/20 08:54:04;;;;;;;13.00;2.45;;;21.80;73.00;;;;;;9181349;19;20032;-66
2022/08/20 08:57:12;;;;;;;10.93;2.40;;;21.90;72.90;;;;;;9183807;19;20100;-68
2022/08/20 09:00:22;;;;;;;14.25;2.65;;;21.90;72.80;;;;;;9183695;19;20018;-69
2022/08/20 09:03:31;;;;;;;10.43;2.70;;;22.10;72.90;;;;;;9180570;19;20014;-67
2022/08/20 09:06:39;;;;;;;15.98;2.22;;;22.20;72.80;;;;;;9178712;19;20034;-67
2022/08/20 09:09:47;;;;;;;7.85;1.92;;;22.40;72.60;;;;;;9179605;19;20463;-67
2022/08/20 09:12:52;;;;;;;13.82;2.22;;;22.50;72.20;;;;;;9179039;19;20029;-69
2022/08/20 09:16:00;;;;;;;10.73;2.03;;;22.70;71.90;;;;;;9179576;19;20021;-67
2022/08/20 09:19:05;;;;;;;13.20;2.25;;;23.00;71.60;;;;;;9179632;19;20014;-69
2022/08/20 09:22:11;;;;;;;8.70;2.00;;;23.20;71.40;;;;;;9179902;19;20547;-68
2022/08/20 09:25:16;;;;;;;9.25;2.22;;;23.40;71.10;;;;;;9181583;19;20052;-67
2022/08/20 09:28:21;;;;;;;11.32;2.15;;;23.60;70.70;;;;;;9182125;19;20025;-65
2022/08/20 09:31:30;;;;;;;9.48;2.08;;;23.90;70.30;;;;;;9179099;19;20378;-68
2022/08/20 09:34:38;;;;;;;7.20;2.10;;;24.20;69.80;;;;;;9181935;19;20025;-69
2022/08/20 09:37:43;;;;;;;7.68;1.92;;;24.40;69.40;;;;;;9181579;19;20038;-68
2022/08/20 09:40:49;;;;;;;8.73;2.17;;;24.60;69.10;;;;;;9179724;19;20061;-67
2022/08/20 09:43:54;;;;;;;11.35;2.00;;;24.80;68.70;;;;;;9181274;19;20048;-68
2022/08/20 09:47:02;;;;;;;11.35;1.70;;;25.00;68.30;;;;;;9182318;19;20018;-67
2022/08/20 09:50:08;;;;;;;6.72;1.58;;;25.20;67.90;;;;;;9180341;19;20035;-70
2022/08/20 09:53:14;;;;;;;9.95;2.25;;;25.40;67.60;;;;;;9179727;19;20364;-68
2022/08/20 09:56:19;;;;;;;11.57;1.88;;;25.60;67.30;;;;;;9178168;19;20472;-67
2022/08/20 09:59:24;;;;;;;8.20;1.63;;;25.70;66.90;;;;;;9180288;19;20344;-69
2022/08/20 10:02:32;;;;;;;10.13;2.00;;;26.00;66.60;;;;;;9177951;19;20516;-67
2022/08/20 10:05:37;;;;;;;9.13;1.55;;;26.10;66.10;;;;;;9174650;19;20018;-68
2022/08/20 10:08:42;;;;;;;8.82;1.52;;;26.20;65.80;;;;;;9180555;19;20376;-69
2022/08/20 10:11:47;;;;;;;10.20;2.65;;;26.40;65.50;;;;;;9180352;19;20013;-68
2022/08/20 10:14:54;;;;;;;10.30;1.73;;;26.60;65.10;;;;;;9181043;19;20015;-68
2022/08/20 10:18:06;;;;;;;11.77;1.70;;;26.70;64.70;;;;;;9180247;19;20799;-67
2022/08/20 10:21:12;;;;;;;6.93;1.77;;;26.90;64.30;;;;;;9180690;19;20335;-67
2022/08/20 10:24:17;;;;;;;9.55;2.03;;;27.10;64.30;;;;;;9179674;19;20025;-67
2022/08/20 10:27:22;;;;;;;9.02;1.58;;;27.20;63.90;;;;;;9180148;19;20034;-66
2022/08/20 10:30:27;;;;;;;6.15;1.90;;;27.30;63.50;;;;;;9180511;19;20006;-66
2022/08/20 10:33:35;;;;;;;8.70;1.58;;;27.40;63.00;;;;;;9177561;19;20510;-66
2022/08/20 10:36:40;;;;;;;6.72;1.63;;;27.60;62.40;;;;;;9176542;19;20026;-67
2022/08/20 10:39:47;;;;;;;9.43;1.73;;;27.70;62.10;;;;;;9177078;19;20025;-67
2022/08/20 10:42:52;;;;;;;13.25;2.20;;;27.80;61.60;;;;;;9187400;19;20472;-67
2022/08/20 10:45:57;;;;;;;4.60;1.27;;;28.00;61.60;;;;;;9188420;19;20067;-67
2022/08/20 10:49:05;;;;;;;11.57;2.00;;;28.10;61.20;;;;;;9188416;19;20336;-66
2022/08/20 10:52:10;;;;;;;9.68;2.13;;;28.20;60.80;;;;;;9188351;19;20034;-69
2022/08/20 10:55:15;;;;;;;7.68;1.42;;;28.30;60.60;;;;;;9187770;19;20010;-68
2022/08/20 10:58:20;;;;;;;9.00;1.55;;;28.40;60.30;;;;;;9188405;19;20028;-68
2022/08/20 11:01:27;;;;;;;7.93;2.05;;;28.50;60.00;;;;;;9185294;19;20357;-69
2022/08/20 11:04:40;;;;;;;7.10;1.80;;;28.60;59.70;;;;;;9183952;19;20476;-67
2022/08/20 11:07:46;;;;;;;14.00;2.00;;;28.70;59.20;;;;;;9187931;19;20014;-70
2022/08/20 11:11:03;;;;;;;9.70;1.65;;;28.80;59.10;;;;;;9186794;19;20010;-66
2022/08/20 11:14:08;;;;;;;6.95;1.77;;;28.80;58.90;;;;;;9186628;19;20019;-69
2022/08/20 11:17:14;;;;;;;10.02;2.03;;;29.00;58.70;;;;;;9183681;19;20015;-69
2022/08/20 11:20:24;;;;;;;8.95;2.00;;;29.00;58.50;;;;;;9183129;19;20014;-69
2022/08/20 11:23:29;;;;;;;6.78;1.75;;;29.00;58.00;;;;;;9186199;19;20017;-68
2022/08/20 11:26:37;;;;;;;7.00;2.22;;;29.10;58.10;;;;;;9185255;19;20024;-68
2022/08/20 11:29:42;;;;;;;13.77;1.67;;;29.10;57.70;;;;;;9185559;19;20029;-68
2022/08/20 11:32:48;;;;;;;12.30;2.47;;;29.10;57.50;;;;;;9186741;19;20033;-69
2022/08/20 11:35:55;;;;;;;7.22;1.45;;;29.20;57.30;;;;;;9184277;19;20131;-68
2022/08/20 11:39:00;;;;;;;4.88;1.45;;;29.20;56.90;;;;;;9186255;19;20452;-69
2022/08/20 11:42:06;;;;;;;11.13;1.55;;;29.20;56.80;;;;;;9187942;19;20022;-70
2022/08/20 11:45:12;;;;;;;8.63;1.45;;;29.10;56.50;;;;;;9185045;19;20050;-68
2022/08/20 11:48:17;;;;;;;8.63;2.08;;;29.10;56.30;;;;;;9187650;19;20013;-67
2022/08/20 11:51:25;;;;;;;10.00;1.80;;;29.00;56.10;;;;;;9187140;19;20034;-70
2022/08/20 11:54:31;;;;;;;7.47;1.50;;;29.00;55.90;;;;;;9184114;19;20021;-70
2022/08/20 11:57:38;;;;;;;7.95;2.00;;;28.90;55.80;;;;;;9181763;19;20026;-70
2022/08/20 12:00:43;;;;;;;7.03;1.73;;;28.90;55.80;;;;;;9185962;19;20015;-69
2022/08/20 12:03:48;;;;;;;9.30;1.33;;;28.80;55.70;;;;;;9184352;19;20041;-70
2022/08/20 12:06:56;;;;;;;7.55;1.33;;;28.80;55.60;;;;;;9180699;19;20029;-70
2022/08/20 12:10:06;;;;;;;14.45;1.98;;;28.70;55.30;;;;;;9185218;19;20029;-69
2022/08/20 12:13:11;;;;;;;8.68;1.60;;;28.70;55.10;;;;;;9183646;19;20033;-68
2022/08/20 12:16:16;;;;;;;10.68;1.90;;;28.70;54.90;;;;;;9183898;19;20010;-69
2022/08/20 12:19:21;;;;;;;9.30;1.98;;;28.70;54.60;;;;;;9184048;19;20014;-67
2022/08/20 12:22:29;;;;;;;11.82;1.60;;;28.70;54.40;;;;;;9184143;19;20029;-66
2022/08/20 12:25:35;;;;;;;7.95;1.50;;;28.70;54.30;;;;;;9184104;19;20340;-68
2022/08/20 12:28:40;;;;;;;4.93;1.30;;;28.70;54.30;;;;;;9184079;19;20044;-67
2022/08/20 12:31:45;;;;;;;6.50;1.73;;;28.70;54.20;;;;;;9185354;19;20082;-67
2022/08/20 12:34:50;;;;;;;8.52;1.60;;;28.70;54.00;;;;;;9184900;19;20019;-67
2022/08/20 12:37:58;;;;;;;6.18;1.48;;;28.70;53.90;;;;;;9182561;19;20344;-67
2022/08/20 12:41:03;;;;;;;8.10;1.65;;;28.70;53.70;;;;;;9180265;19;20014;-71
2022/08/20 12:44:08;;;;;;;5.38;1.77;;;28.60;53.60;;;;;;9183190;19;20017;-68
2022/08/20 12:47:19;;;;;;;8.75;1.65;;;28.60;53.40;;;;;;9184417;19;20447;-67
2022/08/20 12:50:26;;;;;;;8.23;1.45;;;28.60;53.30;;;;;;9182123;19;20768;-71
2022/08/20 12:53:38;;;;;;;6.80;1.40;;;28.60;53.20;;;;;;9180385;19;20015;-67
2022/08/20 12:56:43;;;;;;;6.25;1.60;;;28.60;53.00;;;;;;9182951;19;20010;-66
2022/08/20 12:59:48;;;;;;;7.88;2.03;;;28.60;53.00;;;;;;9182991;19;20007;-69
2022/08/20 13:02:54;;;;;;;5.35;1.50;;;28.60;52.90;;;;;;9182303;19;20014;-69
2022/08/20 13:06:02;;;;;;;9.05;1.58;;;28.60;52.70;;;;;;9179143;19;20086;-67
2022/08/20 13:09:10;;;;;;;7.30;1.90;;;28.60;52.40;;;;;;9183245;19;20026;-68
2022/08/20 13:12:15;;;;;;;5.93;1.50;;;28.60;52.30;;;;;;9182244;19;20077;-67
2022/08/20 13:15:24;;;;;;;10.02;1.50;;;28.50;52.30;;;;;;9180804;19;20500;-69
2022/08/20 13:18:29;;;;;;;9.60;1.60;;;28.50;52.30;;;;;;9181025;19;20014;-67
2022/08/20 13:21:35;;;;;;;6.30;1.42;;;28.40;52.20;;;;;;9182646;19;20018;-66
2022/08/20 13:24:43;;;;;;;7.05;1.20;;;28.30;52.00;;;;;;9183107;19;20010;-70
2022/08/20 13:27:49;;;;;;;4.50;1.25;;;28.20;51.80;;;;;;9182008;19;20014;-68
2022/08/20 13:30:54;;;;;;;5.50;1.08;;;28.20;51.90;;;;;;9182205;19;20025;-69
2022/08/20 13:33:59;;;;;;;8.65;1.52;;;28.10;51.80;;;;;;9182887;19;20016;-70
2022/08/20 13:37:12;;;;;;;7.28;1.27;;;28.10;51.80;;;;;;9180966;19;20928;-70
2022/08/20 13:40:20;;;;;;;8.23;1.67;;;28.00;51.70;;;;;;9180247;19;20026;-68
2022/08/20 13:43:25;;;;;;;7.88;1.52;;;27.90;51.60;;;;;;9179658;19;21525;-67
2022/08/20 13:46:30;;;;;;;8.63;1.40;;;27.80;51.50;;;;;;9181746;19;20021;-69
2022/08/20 13:49:35;;;;;;;7.80;1.73;;;27.70;51.40;;;;;;9179893;19;20022;-70
2022/08/20 13:52:41;;;;;;;4.90;1.27;;;27.70;51.40;;;;;;9179709;19;20015;-68
2022/08/20 13:55:49;;;;;;;4.88;1.38;;;27.60;51.30;;;;;;9181002;19;20026;-67
2022/08/20 13:58:54;;;;;;;6.13;1.50;;;27.60;51.30;;;;;;9179901;19;20018;-67
2022/08/20 14:01:59;;;;;;;8.65;1.00;;;27.60;51.40;;;;;;9180544;19;20455;-69
2022/08/20 14:05:11;;;;;;;8.27;1.55;;;27.60;51.30;;;;;;9175709;19;20014;-68
2022/08/20 14:08:23;;;;;;;3.08;1.27;;;27.60;51.20;;;;;;9181721;19;20010;-68
2022/08/20 14:11:31;;;;;;;6.88;1.55;;;27.60;51.30;;;;;;9180507;19;20015;-67
2022/08/20 14:14:36;;;;;;;5.60;1.35;;;27.60;51.10;;;;;;9178557;19;20022;-68
2022/08/20 14:17:43;;;;;;;8.23;1.65;;;27.60;51.00;;;;;;9178610;19;20023;-71
2022/08/20 14:20:48;;;;;;;6.97;1.55;;;27.60;50.90;;;;;;9179964;19;20514;-68
2022/08/20 14:23:53;;;;;;;5.07;1.40;;;27.60;50.80;;;;;;9178928;19;20018;-69
2022/08/20 14:27:01;;;;;;;5.43;1.40;;;27.60;50.80;;;;;;9180183;19;20017;-69
2022/08/20 14:30:09;;;;;;;7.70;1.17;;;27.60;50.60;;;;;;9178795;19;20332;-68
2022/08/20 14:33:14;;;;;;;10.95;1.40;;;27.70;50.60;;;;;;9170366;19;20804;-69
2022/08/20 14:36:19;;;;;;;5.00;1.02;;;27.60;50.50;;;;;;9171796;19;20018;-68
2022/08/20 14:39:25;;;;;;;6.32;1.58;;;27.70;50.60;;;;;;9168068;19;20006;-68
2022/08/20 14:42:33;;;;;;;6.95;1.30;;;27.70;50.50;;;;;;9172717;19;20011;-73
2022/08/20 14:45:40;;;;;;;7.15;1.63;;;27.70;50.50;;;;;;9170206;19;20579;-71
2022/08/20 14:48:49;;;;;;;8.05;1.85;;;27.70;50.50;;;;;;9171173;19;20018;-70
2022/08/20 14:51:57;;;;;;;10.30;1.80;;;27.70;50.30;;;;;;9172706;19;20518;-69
2022/08/20 14:55:03;;;;;;;7.47;2.13;;;27.70;50.40;;;;;;9171790;19;20021;-73
2022/08/20 14:58:15;;;;;;;8.15;1.73;;;27.80;50.40;;;;;;9169497;19;20010;-69
2022/08/20 15:01:20;;;;;;;8.40;1.85;;;27.80;50.30;;;;;;9171231;19;20511;-68
2022/08/20 15:04:25;;;;;;;7.38;2.22;;;27.80;50.30;;;;;;9169184;19;20400;-68
2022/08/20 15:07:33;;;;;;;8.98;1.95;;;27.90;50.20;;;;;;9169538;19;20788;-69
2022/08/20 15:10:38;;;;;;;5.00;1.48;;;27.90;50.10;;;;;;9165286;19;20549;-69
2022/08/20 15:13:46;;;;;;;5.32;1.27;;;27.90;50.00;;;;;;9166264;19;20516;-66
2022/08/20 15:16:51;;;;;;;9.50;1.60;;;27.90;49.90;;;;;;9165063;19;20018;-70
2022/08/20 15:19:57;;;;;;;8.32;1.40;;;27.90;50.00;;;;;;9158717;19;20018;-70
2022/08/20 15:23:02;;;;;;;4.65;1.20;;;27.90;49.90;;;;;;9160526;19;20062;-72
2022/08/20 15:26:08;;;;;;;6.43;1.52;;;27.80;49.80;;;;;;9164704;19;20025;-67
2022/08/20 15:29:17;;;;;;;6.50;1.50;;;27.80;49.70;;;;;;9174617;19;20013;-69
2022/08/20 15:32:27;;;;;;;10.48;1.52;;;27.70;49.50;;;;;;9175924;19;20019;-68
2022/08/20 15:35:32;;;;;;;8.70;2.25;;;27.70;49.60;;;;;;9172175;19;20015;-69
2022/08/20 15:38:37;;;;;;;5.85;1.38;;;27.60;49.60;;;;;;9167430;19;20030;-70
2022/08/20 15:41:42;;;;;;;7.00;1.58;;;27.60;49.50;;;;;;9166108;19;20467;-69
2022/08/20 15:44:51;;;;;;;5.82;1.30;;;27.50;49.40;;;;;;9166979;19;20391;-71
2022/08/20 15:48:01;;;;;;;7.82;2.03;;;27.50;49.40;;;;;;9168278;19;20048;-70
2022/08/20 15:51:33;;;;;;;9.20;1.50;;;27.40;49.30;;;;;;9154735;19;20026;-71
2022/08/20 15:54:39;;;;;;;5.88;1.65;;;27.40;49.10;;;;;;9172472;19;20022;-69
2022/08/20 15:57:54;;;;;;;7.47;1.63;;;27.40;49.40;;;;;;9163638;19;20591;-69
2022/08/20 16:01:08;;;;;;;11.90;2.00;;;27.30;49.10;;;;;;9170396;19;20021;-69
2022/08/20 16:05:02;;;;;;;8.18;1.80;;;27.30;49.10;;;;;;9169981;19;20011;-70
2022/08/20 16:08:21;;;;;;;6.47;1.52;;;27.20;48.80;;;;;;9170698;19;20015;-68
2022/08/20 16:11:39;;;;;;;6.68;1.63;;;27.20;49.10;;;;;;9171908;19;20022;-69
2022/08/20 16:14:46;;;;;;;6.95;1.60;;;27.20;49.10;;;;;;9173937;19;20015;-69
2022/08/20 16:18:04;;;;;;;5.05;1.80;;;27.10;49.10;;;;;;9172677;19;20014;-70